Time;durP1;ratioP1;P1;durP2;ratioP2;P2;SDS_P1;SDS_P2;PMS_P1;PMS_P2;Temp;Humidity;BMP_temperature;BMP_pressure;BME280_temperature;BME280_humidity;BME280_pressure;Samples;Min_cycle;Max_cycle;Signal;HPM_P1;HPM_P2
2023/04/11 00:00:33;;;;;;;;;;;;;;;12.59;64.59;96170.19;5058972;28;19924;-84
2023/04/11 00:03:01;;;;;;;;;;;;;;;12.57;64.92;96172.31;5066772;28;19924;-84
2023/04/11 00:05:30;;;;;;;;;;;;;;;12.54;66.77;96157.38;5064636;28;20010;-84
2023/04/11 00:07:57;;;;;;;;;;;;;;;12.43;67.47;96142.00;5063414;28;19932;-84
2023/04/11 00:10:23;;;;;;;;;;;;;;;12.39;67.96;96138.19;5055471;28;19924;-83
2023/04/11 00:12:51;;;;;;;;;;;;;;;12.34;67.61;96135.38;5052361;28;19929;-85
2023/04/11 00:15:18;;;;;;;;;;;;;;;12.35;66.57;96121.59;5055868;28;19925;-85
2023/04/11 00:17:47;;;;;;;;;;;;;;;12.37;65.23;96124.88;5054187;28;19932;-84
2023/04/11 00:20:14;;;;;;;;;;;;;;;12.37;65.45;96114.03;5058800;28;19974;-84
2023/04/11 00:22:42;;;;;;;;;;;;;;;12.38;65.27;96104.03;5071765;28;19928;-85
2023/04/11 00:25:09;;;;;;;;;;;;;;;12.37;65.36;96091.56;5062313;28;19978;-85
2023/04/11 00:27:36;;;;;;;;;;;;;;;12.38;66.40;96102.16;5061366;28;19954;-85
2023/04/11 00:30:03;;;;;;;;;;;;;;;12.35;66.38;96088.28;5069869;28;20046;-85
2023/04/11 00:32:30;;;;;;;;;;;;;;;12.34;65.56;96084.75;5071372;28;19925;-85
2023/04/11 00:34:58;;;;;;;;;;;;;;;12.36;65.55;96073.69;5072696;28;19931;-85
2023/04/11 00:37:25;;;;;;;;;;;;;;;12.35;65.17;96066.63;5066557;28;20019;-84
2023/04/11 00:39:53;;;;;;;;;;;;;;;12.40;64.56;96069.41;5060916;28;19932;-84
2023/04/11 00:42:20;;;;;;;;;;;;;;;12.42;65.17;96067.25;5060881;28;19933;-84
2023/04/11 00:44:46;;;;;;;;;;;;;;;12.42;64.65;96065.38;5056323;28;19925;-84
2023/04/11 00:47:13;;;;;;;;;;;;;;;12.50;63.18;96072.28;5070013;28;20138;-84
2023/04/11 00:49:41;;;;;;;;;;;;;;;12.53;62.95;96063.63;5068325;28;19924;-85
2023/04/11 00:52:11;;;;;;;;;;;;;;;12.57;63.38;96069.38;5066601;28;19928;-85
2023/04/11 00:54:39;;;;;;;;;;;;;;;12.58;65.32;96065.63;5059443;28;19931;-84
2023/04/11 00:57:06;;;;;;;;;;;;;;;12.51;64.89;96073.91;5059421;28;19978;-84
2023/04/11 00:59:33;;;;;;;;;;;;;;;12.54;64.49;96075.28;5069351;28;19932;-84
2023/04/11 01:02:00;;;;;;;;;;;;;;;12.52;65.34;96099.91;5062760;28;19931;-84
2023/04/11 01:04:28;;;;;;;;;;;;;;;12.59;64.49;96126.84;5070584;28;19972;-84
2023/04/11 01:06:56;;;;;;;;;;;;;;;12.55;66.16;96142.75;5064636;28;19928;-84
2023/04/11 01:09:26;;;;;;;;;;;;;;;12.44;69.45;96149.06;5065676;28;19960;-84
2023/04/11 01:11:53;;;;;;;;;;;;;;;12.31;70.18;96144.81;5063861;28;20022;-84
2023/04/11 01:14:20;;;;;;;;;;;;;;;12.27;70.27;96132.84;5069078;28;19925;-84
2023/04/11 01:16:49;;;;;;;;;;;;;;;12.23;70.23;96126.28;5066904;28;19995;-84
2023/04/11 01:19:18;;;;;;;;;;;;;;;12.18;71.37;96117.25;5070426;28;19924;-85
2023/04/11 01:21:45;;;;;;;;;;;;;;;12.15;72.99;96106.91;5066541;28;19929;-83
2023/04/11 01:24:13;;;;;;;;;;;;;;;12.10;72.82;96102.22;5066264;28;19929;-84
2023/04/11 01:26:40;;;;;;;;;;;;;;;12.10;73.19;96096.81;5068496;28;19928;-84
2023/04/11 01:29:07;;;;;;;;;;;;;;;12.09;77.19;96073.53;5070223;28;19935;-84
2023/04/11 01:31:34;;;;;;;;;;;;;;;12.08;77.18;96071.88;5071064;28;19956;-84
2023/04/11 01:34:01;;;;;;;;;;;;;;;12.02;77.86;96060.16;5068658;28;19956;-84
2023/04/11 01:36:28;;;;;;;;;;;;;;;12.00;78.29;96056.06;5062161;28;19925;-84
2023/04/11 01:38:55;;;;;;;;;;;;;;;11.88;79.07;96053.44;5065422;28;19925;-84
2023/04/11 01:41:24;;;;;;;;;;;;;;;11.77;79.02;96048.09;5066326;28;20027;-84
2023/04/11 01:43:52;;;;;;;;;;;;;;;11.69;79.50;96062.81;5064388;28;19925;-84
2023/04/11 01:46:19;;;;;;;;;;;;;;;11.67;79.58;96064.94;5068046;28;19978;-85
2023/04/11 01:48:46;;;;;;;;;;;;;;;11.63;82.28;96058.41;5065315;28;19946;-83
2023/04/11 01:51:12;;;;;;;;;;;;;;;11.58;81.66;96039.34;5064589;28;19928;-84
2023/04/11 01:53:39;;;;;;;;;;;;;;;11.53;83.15;96031.16;5055209;28;19931;-83
2023/04/11 01:56:06;;;;;;;;;;;;;;;11.52;81.21;96043.88;5061296;28;19932;-84
2023/04/11 01:58:35;;;;;;;;;;;;;;;11.52;81.86;96038.47;5071129;28;19930;-84
2023/04/11 02:01:01;;;;;;;;;;;;;;;11.51;82.18;96044.09;5068558;28;19924;-84
2023/04/11 02:03:28;;;;;;;;;;;;;;;11.51;81.44;96033.28;5061892;28;19978;-85
2023/04/11 02:05:55;;;;;;;;;;;;;;;11.50;80.14;96026.25;5069522;28;20277;-84
2023/04/11 02:08:23;;;;;;;;;;;;;;;11.54;81.12;96030.09;5069040;28;19955;-84
2023/04/11 02:10:49;;;;;;;;;;;;;;;11.54;80.64;96044.44;5066121;28;19936;-84
2023/04/11 02:13:16;;;;;;;;;;;;;;;11.57;81.17;96048.56;5061256;28;20019;-85
2023/04/11 02:15:44;;;;;;;;;;;;;;;11.49;83.40;96047.03;5064743;28;19933;-85
2023/04/11 02:18:11;;;;;;;;;;;;;;;11.42;83.58;96046.38;5063673;28;20011;-85
2023/04/11 02:21:02;;;;;;;;;;;;;;;11.36;83.27;96034.66;5057908;28;19929;-84
2023/04/11 02:23:29;;;;;;;;;;;;;;;11.35;81.11;96022.22;5082165;28;19932;-84
2023/04/11 02:25:55;;;;;;;;;;;;;;;11.37;80.12;96019.28;5067300;28;19924;-84
2023/04/11 02:28:22;;;;;;;;;;;;;;;11.38;80.55;96008.22;5065624;28;19924;-84
2023/04/11 02:30:52;;;;;;;;;;;;;;;11.42;81.11;96013.13;5064310;28;20039;-84
2023/04/11 02:33:19;;;;;;;;;;;;;;;11.43;81.92;96018.28;5068987;28;19925;-84
2023/04/11 02:35:46;;;;;;;;;;;;;;;11.45;81.72;96020.75;5064079;28;19925;-84
2023/04/11 02:38:13;;;;;;;;;;;;;;;11.48;79.91;96004.88;5066694;28;19924;-84
2023/04/11 02:40:40;;;;;;;;;;;;;;;11.55;80.07;95991.19;5068390;28;19925;-84
2023/04/11 02:43:07;;;;;;;;;;;;;;;11.47;79.11;95981.59;5065623;28;19924;-84
2023/04/11 02:45:33;;;;;;;;;;;;;;;11.44;79.37;95989.38;5064581;28;19933;-85
2023/04/11 02:48:02;;;;;;;;;;;;;;;11.42;80.81;95992.31;5068316;28;19929;-83
2023/04/11 02:50:32;;;;;;;;;;;;;;;11.31;81.46;95995.94;5065041;28;20342;-85
2023/04/11 02:52:59;;;;;;;;;;;;;;;11.30;81.89;96003.22;5067746;28;19932;-84
2023/04/11 02:55:28;;;;;;;;;;;;;;;11.28;82.46;96010.72;5064707;28;19929;-84
2023/04/11 02:57:54;;;;;;;;;;;;;;;11.32;82.74;96002.94;5067183;28;19928;-84
2023/04/11 03:00:22;;;;;;;;;;;;;;;11.26;83.17;96012.03;5065436;28;19928;-85
2023/04/11 03:02:56;;;;;;;;;;;;;;;11.21;83.40;96006.53;5068122;28;20015;-84
2023/04/11 03:05:25;;;;;;;;;;;;;;;11.16;84.36;95992.91;5063932;28;20050;-85
2023/04/11 03:07:53;;;;;;;;;;;;;;;11.11;86.34;95995.53;5067601;28;19925;-84
2023/04/11 03:10:20;;;;;;;;;;;;;;;11.01;86.07;96001.56;5059508;28;19924;-84
2023/04/11 03:12:47;;;;;;;;;;;;;;;11.00;86.67;96013.44;5067734;28;19947;-84
2023/04/11 03:15:16;;;;;;;;;;;;;;;11.00;88.16;96005.34;5069418;28;19970;-82
2023/04/11 03:17:43;;;;;;;;;;;;;;;10.95;86.05;95995.25;5065389;28;19929;-84
2023/04/11 03:20:18;;;;;;;;;;;;;;;10.96;86.98;95993.38;5066933;28;19931;-84
2023/04/11 03:22:49;;;;;;;;;;;;;;;10.93;88.05;95994.69;5073309;28;19935;-84
2023/04/11 03:25:17;;;;;;;;;;;;;;;10.89;88.27;95992.69;5065749;28;19968;-85
2023/04/11 03:27:45;;;;;;;;;;;;;;;10.87;87.27;95992.94;5062752;28;19924;-84
2023/04/11 03:30:13;;;;;;;;;;;;;;;10.87;87.52;96001.06;5070495;28;19931;-84
2023/04/11 03:32:42;;;;;;;;;;;;;;;10.90;87.47;96015.94;5067309;28;19981;-84
2023/04/11 03:35:10;;;;;;;;;;;;;;;10.97;87.53;96024.75;5064722;28;19928;-84
2023/04/11 03:37:40;;;;;;;;;;;;;;;10.94;90.34;96019.81;5067255;28;19932;-85
2023/04/11 03:40:09;;;;;;;;;;;;;;;10.90;90.53;96007.84;5063285;28;19975;-84
2023/04/11 03:42:38;;;;;;;;;;;;;;;10.86;89.42;96017.50;5064174;28;20015;-85
2023/04/11 03:45:08;;;;;;;;;;;;;;;10.80;90.95;96042.75;5066903;28;19924;-85
2023/04/11 03:47:35;;;;;;;;;;;;;;;10.81;92.83;96052.47;5075605;28;19928;-83
2023/04/11 03:50:03;;;;;;;;;;;;;;;10.79;93.43;96044.63;5055670;28;19970;-83
2023/04/11 03:52:36;;;;;;;;;;;;;;;10.79;93.50;96038.41;5063394;28;19925;-84
2023/04/11 03:55:11;;;;;;;;;;;;;;;10.77;92.21;96032.44;5064734;28;19932;-85
2023/04/11 03:57:38;;;;;;;;;;;;;;;10.74;94.56;96049.09;5064933;28;19932;-84
2023/04/11 04:00:06;;;;;;;;;;;;;;;10.75;96.20;96056.13;5064738;28;19956;-84
2023/04/11 04:02:41;;;;;;;;;;;;;;;10.74;97.21;96032.91;5066494;28;19929;-83
2023/04/11 04:05:11;;;;;;;;;;;;;;;10.70;99.61;96032.56;5068760;28;19932;-84
2023/04/11 04:07:39;;;;;;;;;;;;;;;10.71;100.00;96022.59;5055666;28;19925;-85
2023/04/11 04:10:14;;;;;;;;;;;;;;;10.66;100.00;96000.88;5060012;28;19925;-84
2023/04/11 04:12:43;;;;;;;;;;;;;;;10.63;100.00;96007.59;5066559;28;19928;-84
2023/04/11 04:15:14;;;;;;;;;;;;;;;10.65;100.00;96007.31;5054893;28;19931;-85
2023/04/11 04:17:43;;;;;;;;;;;;;;;10.68;100.00;96023.06;5062908;28;19928;-85
2023/04/11 04:20:15;;;;;;;;;;;;;;;10.70;100.00;96027.16;5069319;28;19924;-85
2023/04/11 04:22:46;;;;;;;;;;;;;;;10.66;100.00;96035.97;5058267;28;20011;-85
2023/04/11 04:25:18;;;;;;;;;;;;;;;10.65;100.00;96034.31;5072139;28;19987;-84
2023/04/11 04:27:47;;;;;;;;;;;;;;;10.64;100.00;96033.50;5054663;28;19991;-83
2023/04/11 04:30:15;;;;;;;;;;;;;;;10.58;100.00;96035.28;5054483;28;19967;-85
2023/04/11 04:33:10;;;;;;;;;;;;;;;10.53;100.00;96039.75;5051493;28;19924;-84
2023/04/11 04:35:38;;;;;;;;;;;;;;;10.52;100.00;96051.63;5068976;28;19924;-84
2023/04/11 04:38:06;;;;;;;;;;;;;;;10.55;100.00;96054.63;5066157;28;19979;-84
2023/04/11 04:40:49;;;;;;;;;;;;;;;10.49;100.00;96036.72;5063137;28;20070;-84
2023/04/11 04:43:22;;;;;;;;;;;;;;;10.41;100.00;96039.78;5065229;28;20030;-84
2023/04/11 04:45:55;;;;;;;;;;;;;;;10.41;100.00;96037.06;5055640;28;19925;-84
2023/04/11 04:48:39;;;;;;;;;;;;;;;10.50;100.00;96035.66;5055530;28;19931;-84
2023/04/11 04:51:06;;;;;;;;;;;;;;;10.52;100.00;96041.63;5054467;28;19925;-84
2023/04/11 04:53:37;;;;;;;;;;;;;;;10.55;100.00;96051.13;5070863;28;19952;-83
2023/04/11 04:56:07;;;;;;;;;;;;;;;10.59;100.00;96058.53;5062327;28;19952;-84
2023/04/11 04:58:38;;;;;;;;;;;;;;;10.63;100.00;96048.09;5061109;28;19928;-84
2023/04/11 05:01:10;;;;;;;;;;;;;;;10.58;100.00;96046.09;5060796;28;19924;-84
2023/04/11 05:03:37;;;;;;;;;;;;;;;10.57;100.00;96039.03;5068542;28;19924;-84
2023/04/11 05:06:08;;;;;;;;;;;;;;;10.49;100.00;96054.78;5062486;28;19937;-84
2023/04/11 05:08:35;;;;;;;;;;;;;;;10.46;100.00;96056.06;5069221;28;19936;-85
2023/04/11 05:11:05;;;;;;;;;;;;;;;10.47;100.00;96071.19;5072053;28;19932;-84
2023/04/11 05:13:34;;;;;;;;;;;;;;;10.43;100.00;96085.41;5064615;28;19978;-85
2023/04/11 05:16:03;;;;;;;;;;;;;;;10.39;100.00;96087.75;5062803;28;19928;-84
2023/04/11 05:18:30;;;;;;;;;;;;;;;10.35;100.00;96100.09;5059505;28;19931;-84
2023/04/11 05:20:57;;;;;;;;;;;;;;;10.40;100.00;96108.28;5068122;28;20028;-84
2023/04/11 05:23:30;;;;;;;;;;;;;;;10.44;100.00;96114.88;5070395;28;19931;-84
2023/04/11 05:26:00;;;;;;;;;;;;;;;10.42;100.00;96117.00;5068401;28;19925;-84
2023/04/11 05:28:27;;;;;;;;;;;;;;;10.42;100.00;96122.38;5068357;28;20119;-84
2023/04/11 05:30:55;;;;;;;;;;;;;;;10.42;100.00;96119.69;5066884;28;19932;-85
2023/04/11 05:33:23;;;;;;;;;;;;;;;10.44;100.00;96135.66;5069561;28;19968;-85
2023/04/11 05:35:50;;;;;;;;;;;;;;;10.52;100.00;96132.59;5062723;28;19925;-85
2023/04/11 05:38:17;;;;;;;;;;;;;;;10.55;100.00;96138.34;5064123;28;19931;-85
2023/04/11 05:40:44;;;;;;;;;;;;;;;10.57;100.00;96157.81;5060589;28;19939;-86
2023/04/11 05:43:13;;;;;;;;;;;;;;;10.47;100.00;96156.75;5055939;28;19929;-85
2023/04/11 05:45:40;;;;;;;;;;;;;;;10.43;100.00;96156.41;5064876;28;19924;-86
2023/04/11 05:48:08;;;;;;;;;;;;;;;10.41;100.00;96163.09;5070503;28;19960;-86
2023/04/11 05:50:36;;;;;;;;;;;;;;;10.35;100.00;96164.03;5072051;28;19924;-87
2023/04/11 05:53:03;;;;;;;;;;;;;;;10.29;100.00;96149.63;5068174;28;20074;-87
2023/04/11 05:55:31;;;;;;;;;;;;;;;10.19;100.00;96162.84;5080043;28;19929;-87
2023/04/11 05:57:57;;;;;;;;;;;;;;;10.14;100.00;96179.69;5082403;28;19925;-87
2023/04/11 06:00:25;;;;;;;;;;;;;;;10.14;100.00;96190.47;5070662;28;19936;-87
2023/04/11 06:02:52;;;;;;;;;;;;;;;10.17;100.00;96192.75;5067905;28;19928;-87
2023/04/11 06:05:20;;;;;;;;;;;;;;;10.15;100.00;96199.41;5061508;28;19928;-84
2023/04/11 06:07:47;;;;;;;;;;;;;;;10.14;100.00;96208.53;5063722;28;19931;-87
2023/04/11 06:10:14;;;;;;;;;;;;;;;10.13;100.00;96204.19;5067293;28;19929;-87
2023/04/11 06:12:40;;;;;;;;;;;;;;;10.09;100.00;96211.13;5072832;28;19989;-87
2023/04/11 06:15:08;;;;;;;;;;;;;;;10.05;100.00;96212.63;5061708;28;19925;-87
2023/04/11 06:17:35;;;;;;;;;;;;;;;10.07;100.00;96232.09;5062249;28;20043;-87
2023/04/11 06:20:02;;;;;;;;;;;;;;;10.10;100.00;96237.06;5066929;28;19924;-88
2023/04/11 06:22:30;;;;;;;;;;;;;;;10.04;100.00;96238.78;5065875;28;20006;-87
2023/04/11 06:24:57;;;;;;;;;;;;;;;10.05;100.00;96240.41;5068367;28;19925;-87
2023/04/11 06:27:24;;;;;;;;;;;;;;;9.99;100.00;96252.13;5066674;28;19932;-88
2023/04/11 06:29:50;;;;;;;;;;;;;;;9.92;100.00;96267.59;5063258;28;19936;-88
2023/04/11 06:32:17;;;;;;;;;;;;;;;9.91;100.00;96265.13;5068189;28;20014;-89
2023/04/11 06:34:44;;;;;;;;;;;;;;;9.94;100.00;96275.47;5069294;28;20023;-88
2023/04/11 06:37:11;;;;;;;;;;;;;;;9.93;100.00;96271.13;5066431;28;19924;-85
2023/04/11 06:39:39;;;;;;;;;;;;;;;9.89;100.00;96273.44;5066129;28;19924;-84
2023/04/11 06:42:06;;;;;;;;;;;;;;;9.80;100.00;96264.81;5065514;28;19931;-85
2023/04/11 06:44:33;;;;;;;;;;;;;;;9.78;100.00;96256.13;5056087;28;20031;-85
2023/04/11 06:47:00;;;;;;;;;;;;;;;9.74;100.00;96252.25;5061869;28;19928;-86
2023/04/11 06:49:28;;;;;;;;;;;;;;;9.76;100.00;96266.34;5063139;28;19929;-87
2023/04/11 06:51:54;;;;;;;;;;;;;;;9.72;100.00;96267.84;5068503;28;19932;-85
2023/04/11 06:54:22;;;;;;;;;;;;;;;9.68;100.00;96250.47;5068043;28;19933;-86
2023/04/11 06:56:50;;;;;;;;;;;;;;;9.65;100.00;96250.09;5064439;28;19925;-86
2023/04/11 06:59:18;;;;;;;;;;;;;;;9.60;100.00;96253.50;5062939;28;19925;-86
2023/04/11 07:01:45;;;;;;;;;;;;;;;9.59;100.00;96251.84;5069094;28;19924;-86
2023/04/11 07:04:12;;;;;;;;;;;;;;;9.59;100.00;96249.16;5064129;28;19924;-85
2023/04/11 07:06:39;;;;;;;;;;;;;;;9.60;100.00;96255.38;5058882;28;19925;-87
2023/04/11 07:09:06;;;;;;;;;;;;;;;9.63;100.00;96262.97;5063217;28;19925;-87
2023/04/11 07:11:33;;;;;;;;;;;;;;;9.64;100.00;96270.84;5065322;28;19936;-87
2023/04/11 07:14:02;;;;;;;;;;;;;;;9.69;100.00;96284.50;5067637;28;19931;-87
2023/04/11 07:16:28;;;;;;;;;;;;;;;9.74;100.00;96281.91;5067549;28;19924;-87
2023/04/11 07:18:55;;;;;;;;;;;;;;;9.75;100.00;96288.97;5060589;28;19931;-87
2023/04/11 07:21:22;;;;;;;;;;;;;;;9.75;100.00;96286.28;5061442;28;20011;-87
2023/04/11 07:23:49;;;;;;;;;;;;;;;9.70;100.00;96277.19;5066263;28;19924;-87
2023/04/11 07:26:16;;;;;;;;;;;;;;;9.71;100.00;96268.88;5067493;28;19936;-88
2023/04/11 07:28:44;;;;;;;;;;;;;;;9.74;100.00;96270.31;5069168;28;19929;-88
2023/04/11 07:31:12;;;;;;;;;;;;;;;9.77;100.00;96265.31;5070375;28;19928;-86
2023/04/11 07:33:39;;;;;;;;;;;;;;;9.81;100.00;96266.47;5055002;28;19989;-87
2023/04/11 07:36:08;;;;;;;21.67;19.53;;;;;;;9.72;100.00;96272.41;5057044;28;20042;-86
2023/04/11 07:38:36;;;;;;;490.40;443.20;;;;;;;9.67;100.00;96286.56;5071767;28;20197;-87
2023/04/11 07:41:05;;;;;;;166.63;143.13;;;;;;;9.70;100.00;96296.06;5066532;28;20209;-87
2023/04/11 07:43:32;;;;;;;165.30;147.70;;;;;;;9.75;100.00;96297.06;5065265;28;20486;-87
2023/04/11 07:45:59;;;;;;;0.00;0.00;;;;;;;9.71;100.00;96295.03;5063893;28;20426;-87
2023/04/11 07:48:28;;;;;;;1.70;1.70;;;;;;;9.71;100.00;96293.16;5066118;28;20196;-87
2023/04/11 07:50:55;;;;;;;1.53;1.53;;;;;;;9.67;100.00;96307.31;5059459;28;20194;-87
2023/04/11 07:53:22;;;;;;;1.30;1.30;;;;;;;9.71;100.00;96301.25;5053130;28;20295;-87
2023/04/11 07:55:49;;;;;;;0.93;0.93;;;;;;;9.74;100.00;96295.41;5056038;28;20344;-87
2023/04/11 07:58:16;;;;;;;1.30;1.30;;;;;;;9.69;100.00;96292.56;5062138;28;20253;-88
2023/04/11 08:00:43;;;;;;;1.40;1.40;;;;;;;9.62;100.00;96302.59;5062447;28;20214;-86
2023/04/11 08:03:12;;;;;;;1.60;1.60;;;;;;;9.68;100.00;96319.75;5056373;28;20210;-87
2023/04/11 08:05:40;;;;;;;1.07;1.07;;;;;;;9.76;100.00;96314.88;5058348;28;20206;-89
2023/04/11 08:08:07;;;;;;;53.57;48.33;;;;;;;9.75;100.00;96301.63;5060336;28;20209;-88
2023/04/11 08:10:34;;;;;;;30.60;26.77;;;;;;;9.82;100.00;96286.19;5064458;28;20229;-87
2023/04/11 08:13:01;;;;;;;40.60;32.17;;;;;;;9.84;100.00;96294.88;5065945;28;20201;-89
2023/04/11 08:15:29;;;;;;;103.67;84.97;;;;;;;9.75;100.00;96283.56;5062349;28;20196;-87
2023/04/11 08:17:56;;;;;;;60.33;54.60;;;;;;;9.87;100.00;96295.22;5058929;28;20506;-88
2023/04/11 08:20:24;;;;;;;7.78;7.28;;;;;;;9.84;100.00;96294.88;5058747;28;20336;-88
2023/04/11 08:22:52;;;;;;;45.60;43.50;;;;;;;9.86;100.00;96295.47;5065317;28;20198;-89
2023/04/11 08:25:21;;;;;;;43.83;31.25;;;;;;;9.79;100.00;96290.16;5065228;28;20469;-89
2023/04/11 08:27:49;;;;;;;45.13;31.20;;;;;;;9.83;100.00;96304.84;5056753;28;20209;-88
2023/04/11 08:30:17;;;;;;;44.30;32.33;;;;;;;9.87;100.00;96307.88;5068676;28;20496;-89
2023/04/11 08:32:44;;;;;;;43.00;31.70;;;;;;;9.87;100.00;96310.59;5051273;28;20209;-89
2023/04/11 08:35:11;;;;;;;36.27;29.80;;;;;;;9.81;100.00;96304.22;5063309;28;20463;-89
2023/04/11 08:37:38;;;;;;;34.20;28.93;;;;;;;9.77;100.00;96303.06;5065799;28;20213;-89
2023/04/11 08:40:08;;;;;;;;;;;;;;;9.83;100.00;96320.19;5065568;28;20201;-89
2023/04/11 08:42:35;;;;;;;;;;;;;;;9.85;100.00;96315.41;5063820;28;19964;-90
2023/04/11 08:45:02;;;;;;;;;;;;;;;9.82;100.00;96313.16;5070683;28;19929;-91
2023/04/11 08:47:29;;;;;;;;;;;;;;;9.78;100.00;96315.47;5068703;28;19975;-89
2023/04/11 08:49:56;;;;;;;;;;;;;;;9.68;100.00;96320.59;5069185;28;20021;-90
2023/04/11 08:52:24;;;;;;;;;;;;;;;9.67;100.00;96326.19;5065332;28;19925;-90
2023/04/11 08:54:53;;;;;;;;;;;;;;;9.56;100.00;96306.19;5069774;28;19959;-90
2023/04/11 08:57:30;;;;;;;;;;;;;;;9.63;100.00;96304.25;5058931;28;19943;-91
2023/04/11 09:00:06;;;;;;;;;;;;;;;9.64;100.00;96287.03;5065979;28;19990;-89
2023/04/11 09:02:34;;;;;;;;;;;;;;;9.72;100.00;96281.31;5067982;28;19925;-89
2023/04/11 09:05:01;;;;;;;;;;;;;;;9.70;100.00;96280.72;5067127;28;19935;-90
2023/04/11 09:07:28;;;;;;;;;;;;;;;9.75;100.00;96283.56;5078086;28;19925;-90
2023/04/11 09:09:55;;;;;;;;;;;;;;;9.76;100.00;96301.41;5061963;28;20023;-90
2023/04/11 09:12:28;;;;;;;;;;;;;;;9.77;100.00;96297.66;5071268;28;19925;-92
2023/04/11 09:14:56;;;;;;;;;;;;;;;9.85;100.00;96299.22;5068981;28;19935;-91
2023/04/11 09:17:23;;;;;;;;;;;;;;;9.88;100.00;96304.97;5072525;28;20016;-90
2023/04/11 09:19:50;;;;;;;;;;;;;;;9.94;100.00;96313.22;5067849;28;19932;-90
2023/04/11 09:22:17;;;;;;;;;;;;;;;10.00;100.00;96305.03;5060909;28;19982;-90
2023/04/11 09:24:45;;;;;;;;;;;;;;;10.07;100.00;96296.84;5064753;28;19929;-89
2023/04/11 09:27:13;;;;;;;;;;;;;;;10.07;100.00;96302.25;5068862;28;19931;-89
2023/04/11 09:29:41;;;;;;;;;;;;;;;10.04;100.00;96302.69;5066703;28;19984;-89
2023/04/11 09:32:26;;;;;;;;;;;;;;;10.00;100.00;96302.34;5066179;28;19931;-89
2023/04/11 09:35:06;;;;;;;;;;;;;;;10.08;100.00;96306.59;5068719;28;20015;-90
2023/04/11 09:37:41;;;;;;;;;;;;;;;10.19;100.00;96305.84;5066426;28;19931;-91
2023/04/11 09:40:09;;;;;;;;;;;;;;;10.20;100.00;96308.34;5074622;28;19928;-90
2023/04/11 09:42:35;;;;;;;;;;;;;;;10.24;100.00;96319.47;5068290;28;20013;-90
2023/04/11 09:45:03;;;;;;;;;;;;;;;10.29;100.00;96330.44;5065640;28;19932;-90
2023/04/11 09:47:33;;;;;;;;;;;;;;;10.29;100.00;96330.44;5059309;28;19975;-91
2023/04/11 09:50:00;;;;;;;;;;;;;;;10.30;100.00;96313.16;5068432;28;19925;-89
2023/04/11 09:52:27;;;;;;;;;;;;;;;10.33;100.00;96317.28;5065713;28;19936;-90
2023/04/11 09:54:54;;;;;;;;;;;;;;;10.37;100.00;96332.81;5063273;28;20197;-90
2023/04/11 09:57:22;;;;;;;;;;;;;;;10.39;100.00;96343.34;5067428;28;19932;-89
2023/04/11 09:59:49;;;;;;;;;;;;;;;10.37;100.00;96345.47;5066282;28;19925;-91
2023/04/11 10:02:16;;;;;;;;;;;;;;;10.39;100.00;96327.16;5061946;28;19999;-91
2023/04/11 10:04:46;;;;;;;;;;;;;;;10.39;100.00;96322.56;5071323;28;19932;-90
2023/04/11 10:07:15;;;;;;;;;;;;;;;10.42;100.00;96310.50;5064822;28;19925;-89
2023/04/11 10:09:43;;;;;;;;;;;;;;;10.45;100.00;96301.97;5060882;28;19976;-90
2023/04/11 10:12:11;;;;;;;;;;;;;;;10.43;100.00;96321.06;5064068;28;19924;-89
2023/04/11 10:14:45;;;;;;;;;;;;;;;10.42;100.00;96316.72;5061457;28;19955;-90
2023/04/11 10:17:14;;;;;;;;;;;;;;;10.41;100.00;96317.78;5063866;28;19972;-89
2023/04/11 10:19:41;;;;;;;;;;;;;;;10.42;100.00;96330.22;5065066;28;19960;-89
2023/04/11 10:22:10;;;;;;;;;;;;;;;10.31;100.00;96331.00;5066451;28;19935;-89
2023/04/11 10:24:36;;;;;;;;;;;;;;;10.09;100.00;96348.72;5070217;28;20063;-89
2023/04/11 10:27:04;;;;;;;;;;;;;;;9.67;100.00;96358.53;5066307;28;19956;-90
2023/04/11 10:29:49;;;;;;;;;;;;;;;9.41;100.00;96367.72;5059277;28;19955;-89
2023/04/11 10:32:20;;;;;;;;;;;;;;;9.30;100.00;96365.75;5072149;28;19992;-90
2023/04/11 10:35:05;;;;;;;;;;;;;;;9.23;100.00;96365.00;5064216;28;19969;-90
2023/04/11 10:37:36;;;;;;;;;;;;;;;9.09;100.00;96385.84;5060444;28;19955;-90
2023/04/11 10:40:08;;;;;;;;;;;;;;;9.09;100.00;96383.16;5058856;28;20495;-90
2023/04/11 10:42:36;;;;;;;;;;;;;;;9.11;100.00;96383.75;5065806;28;19932;-92
2023/04/11 10:45:23;;;;;;;;;;;;;;;9.05;100.00;96385.44;5061078;28;19925;-90
2023/04/11 10:48:11;;;;;;;;;;;;;;;9.02;100.00;96375.09;5061699;28;19928;-91
2023/04/11 10:50:40;;;;;;;;;;;;;;;9.09;100.00;96375.91;5064228;28;19929;-91
2023/04/11 10:53:13;;;;;;;;;;;;;;;9.27;100.00;96377.00;5060773;28;19990;-90
2023/04/11 10:55:44;;;;;;;;;;;;;;;9.16;100.00;96383.91;5057986;28;19924;-90
2023/04/11 10:58:12;;;;;;;;;;;;;;;9.08;100.00;96385.03;5079681;28;19939;-90
2023/04/11 11:01:13;;;;;;;;;;;;;;;9.02;100.00;96371.59;5065087;28;19932;-90
2023/04/11 11:03:40;;;;;;;;;;;;;;;9.10;100.00;96355.97;4992188;28;19925;-91
2023/04/11 11:06:08;;;;;;;;;;;;;;;9.20;100.00;96346.56;4989572;28;19929;-91
2023/04/11 11:08:40;;;;;;;;;;;;;;;9.25;100.00;96352.13;5023068;28;19947;-90
2023/04/11 11:11:10;;;;;;;;;;;;;;;9.38;100.00;96352.00;5066284;28;19928;-91
2023/04/11 11:13:41;;;;;;;;;;;;;;;9.46;100.00;96371.41;5053260;28;19939;-91
2023/04/11 11:16:08;;;;;;;;;;;;;;;9.43;100.00;96371.03;5059749;28;19924;-91
2023/04/11 11:18:35;;;;;;;;;;;;;;;9.36;100.00;96356.78;5060692;28;19992;-89
2023/04/11 11:21:02;;;;;;;;;;;;;;;9.29;100.00;96364.09;5049574;28;19978;-89
2023/04/11 11:23:31;;;;;;;;;;;;;;;9.36;100.00;96370.25;5070001;28;20002;-90
2023/04/11 11:26:00;;;;;;;;;;;;;;;9.32;100.00;96367.19;5055401;28;19994;-90
2023/04/11 11:28:28;;;;;;;;;;;;;;;9.37;100.00;96369.22;5065769;28;20163;-90
2023/04/11 11:30:56;;;;;;;;;;;;;;;9.44;100.00;96373.47;5065919;28;19935;-90
2023/04/11 11:33:23;;;;;;;;;;;;;;;9.45;100.00;96379.69;5064830;28;19930;-91
2023/04/11 11:35:52;;;;;;;;;;;;;;;9.49;100.00;96379.03;5060809;28;19925;-90
2023/04/11 11:38:20;;;;;;;;;;;;;;;9.51;100.00;96378.84;5062816;28;19932;-89
2023/04/11 11:40:47;;;;;;;;;;;;;;;9.60;100.00;96374.81;5065479;28;19982;-90
2023/04/11 11:43:16;;;;;;;;;;;;;;;9.54;100.00;96374.84;5066429;28;20027;-90
2023/04/11 11:45:42;;;;;;;;;;;;;;;9.30;100.00;96387.31;5066847;28;20007;-89
2023/04/11 11:48:19;;;;;;;;;;;;;;;9.09;100.00;96386.69;5068785;28;19924;-90
2023/04/11 11:50:46;;;;;;;;;;;;;;;9.15;100.00;96384.13;5063933;28;19924;-90
2023/04/11 11:53:13;;;;;;;;;;;;;;;9.27;100.00;96382.38;5064312;28;19932;-89
2023/04/11 11:55:40;;;;;;;;;;;;;;;9.36;100.00;96387.25;5055849;28;19925;-89
2023/04/11 11:58:07;;;;;;;;;;;;;;;9.35;100.00;96391.00;5054792;28;19932;-88
2023/04/11 12:00:37;;;;;;;;;;;;;;;9.41;100.00;96398.19;5067450;28;19924;-89
2023/04/11 12:03:05;;;;;;;;;;;;;;;9.46;100.00;96394.81;5068488;28;19966;-89
2023/04/11 12:05:33;;;;;;;;;;;;;;;9.41;100.00;96390.13;5061677;28;19939;-90
2023/04/11 12:08:05;;;;;;;;;;;;;;;9.43;100.00;96403.38;5068162;28;19976;-89
2023/04/11 12:10:39;;;;;;;;;;;;;;;9.36;100.00;96397.19;5067921;28;19959;-88
2023/04/11 12:13:13;;;;;;;;;;;;;;;9.42;100.00;96396.34;5061799;28;20002;-89
2023/04/11 12:15:44;;;;;;;;;;;;;;;9.47;100.00;96405.41;5069905;28;19932;-88
2023/04/11 12:18:22;;;;;;;;;;;;;;;9.41;100.00;96402.75;5071305;28;19933;-88
2023/04/11 12:20:49;;;;;;;;;;;;;;;9.41;100.00;96402.75;5068279;28;19932;-88
2023/04/11 12:23:18;;;;;;;;;;;;;;;9.35;100.00;96398.28;5067678;28;19925;-89
2023/04/11 12:25:45;;;;;;;;;;;;;;;9.42;100.00;96391.78;5068631;28;19930;-89
2023/04/11 12:28:13;;;;;;;;;;;;;;;9.40;100.00;96387.63;5072400;28;20006;-88
2023/04/11 12:30:44;;;;;;;;;;;;;;;9.39;100.00;96394.91;5075517;28;19925;-88
2023/04/11 12:33:11;;;;;;;;;;;;;;;9.44;100.00;96395.03;5068944;28;19933;-89
2023/04/11 12:35:39;;;;;;;;;;;;;;;9.50;100.00;96393.34;5065470;28;19936;-88
2023/04/11 12:38:06;;;;;;;;;;;;;;;9.56;100.00;96400.53;5062918;28;19945;-91
2023/04/11 12:40:37;;;;;;;;;;;;;;;9.57;100.00;96404.88;5062155;28;20047;-85
2023/04/11 12:43:09;;;;;;;;;;;;;;;9.64;100.00;96404.81;5068531;28;19972;-85